EXS52Q EGPH-LPMA
Flight info
| Callsign | EXS52Q |
|---|---|
| Flight time | N/A |
| Altitude | 34000 |
| Route | GOSAM P600 TRN DCT NIMAT DCT DUB DCT ABAGU DCT CRK/M079F340 DCT OMOKO T16 EKROL/M079F330 T16 NAVIX/N0450F330 DCT KICAS |
| Aircraft | A321/M-SDE3FGHIRWY/LB1 |
Departure
| Time | 2026-04-25 11:36 |
|---|---|
| Airport | Edinburgh Airport (EGPH) |
Arrival
| Time | N/A |
|---|---|
| Airport | Cristiano Ronaldo International Airport (LPMA) |
| Time | Latitude | Longitude | Altitude | Speed | Heading |
|---|---|---|---|---|---|
| 2026-04-25 11:07 | 55.94753 | -3.36613 | 101 ft | 0 kts | 89° |
| 2026-04-25 11:21 | 55.94752 | -3.36653 | 101 ft | 4 kts | 79° |
| 2026-04-25 11:21 | 55.94744 | -3.36699 | 101 ft | 4 kts | 59° |
| 2026-04-25 11:22 | 55.94727 | -3.36732 | 101 ft | 4 kts | 22° |
| 2026-04-25 11:22 | 55.94714 | -3.36739 | 103 ft | 1 kts | 359° |
| 2026-04-25 11:25 | 55.94747 | -3.36743 | 104 ft | 10 kts | 347° |
| 2026-04-25 11:25 | 55.94815 | -3.36780 | 105 ft | 11 kts | 358° |
| 2026-04-25 11:25 | 55.94886 | -3.36792 | 108 ft | 8 kts | 338° |
| 2026-04-25 11:26 | 55.94924 | -3.36850 | 109 ft | 10 kts | 294° |
| 2026-04-25 11:26 | 55.94890 | -3.37008 | 107 ft | 15 kts | 240° |
| 2026-04-25 11:26 | 55.94841 | -3.37153 | 109 ft | 14 kts | 237° |
| 2026-04-25 11:26 | 55.94773 | -3.37351 | 111 ft | 21 kts | 239° |
| 2026-04-25 11:27 | 55.94703 | -3.37556 | 112 ft | 18 kts | 238° |
| 2026-04-25 11:27 | 55.94648 | -3.37719 | 115 ft | 13 kts | 238° |
| 2026-04-25 11:27 | 55.94592 | -3.37886 | 113 ft | 21 kts | 239° |
| 2026-04-25 11:27 | 55.94533 | -3.38059 | 114 ft | 27 kts | 238° |
| 2026-04-25 11:28 | 55.94407 | -3.38432 | 115 ft | 24 kts | 239° |
| 2026-04-25 11:28 | 55.94327 | -3.38660 | 121 ft | 19 kts | 239° |
| 2026-04-25 11:28 | 55.94289 | -3.38776 | 119 ft | 8 kts | 243° |
| 2026-04-25 11:28 | 55.94289 | -3.38859 | 123 ft | 5 kts | 300° |
| 2026-04-25 11:29 | 55.94308 | -3.38889 | 121 ft | 3 kts | 325° |
| 2026-04-25 11:29 | 55.94317 | -3.38899 | 120 ft | 0 kts | 329° |
| 2026-04-25 11:34 | 55.94320 | -3.38902 | 121 ft | 3 kts | 329° |
| 2026-04-25 11:34 | 55.94382 | -3.38970 | 119 ft | 14 kts | 329° |
| 2026-04-25 11:34 | 55.94412 | -3.38973 | 121 ft | 3 kts | 53° |
| 2026-04-25 11:34 | 55.94418 | -3.38956 | 117 ft | 0 kts | 57° |
| 2026-04-25 11:35 | 55.94426 | -3.38936 | 119 ft | 9 kts | 57° |
| 2026-04-25 11:35 | 55.94595 | -3.38440 | 113 ft | 84 kts | 58° |
| 2026-04-25 11:36 | 55.95013 | -3.37208 | 112 ft | 146 kts | 59° |
| 2026-04-25 11:36 | 55.95584 | -3.35556 | 626 ft | 156 kts | 58° |
| 2026-04-25 11:36 | 55.96222 | -3.33970 | 1412 ft | 159 kts | 47° |
| 2026-04-25 11:36 | 55.97072 | -3.32629 | 2104 ft | 171 kts | 45° |
| 2026-04-25 11:37 | 55.97986 | -3.31176 | 2548 ft | 179 kts | 44° |
| 2026-04-25 11:37 | 55.98949 | -3.29611 | 2706 ft | 195 kts | 43° |
| 2026-04-25 11:37 | 56.00117 | -3.28242 | 2844 ft | 210 kts | 16° |
| 2026-04-25 11:37 | 56.01600 | -3.28306 | 2984 ft | 222 kts | 339° |
| 2026-04-25 11:38 | 56.02847 | -3.29995 | 3099 ft | 236 kts | 302° |
| 2026-04-25 11:38 | 56.03305 | -3.32843 | 3267 ft | 250 kts | 264° |
| 2026-04-25 11:38 | 56.02967 | -3.35941 | 3744 ft | 256 kts | 256° |
| 2026-04-25 11:38 | 56.02522 | -3.39035 | 4399 ft | 258 kts | 256° |
| 2026-04-25 11:39 | 56.02061 | -3.42108 | 5002 ft | 260 kts | 256° |
| 2026-04-25 11:39 | 56.01587 | -3.45256 | 5658 ft | 261 kts | 256° |
| 2026-04-25 11:39 | 56.01127 | -3.48372 | 6225 ft | 263 kts | 256° |
| 2026-04-25 11:39 | 56.00663 | -3.51558 | 6840 ft | 264 kts | 256° |
| 2026-04-25 11:40 | 56.00203 | -3.54745 | 7377 ft | 267 kts | 258° |
| 2026-04-25 11:40 | 55.99744 | -3.57958 | 7960 ft | 267 kts | 258° |
| 2026-04-25 11:40 | 55.99285 | -3.61184 | 8531 ft | 269 kts | 257° |
| 2026-04-25 11:40 | 55.98821 | -3.64456 | 9014 ft | 273 kts | 258° |
| 2026-04-25 11:41 | 55.98349 | -3.67756 | 9554 ft | 276 kts | 257° |
| 2026-04-25 11:41 | 55.97871 | -3.71100 | 10073 ft | 278 kts | 258° |
| 2026-04-25 11:41 | 55.97386 | -3.74475 | 10463 ft | 287 kts | 257° |
| 2026-04-25 11:41 | 55.96875 | -3.78017 | 10586 ft | 303 kts | 258° |
| 2026-04-25 11:42 | 55.96334 | -3.81768 | 10710 ft | 319 kts | 258° |
| 2026-04-25 11:42 | 55.95764 | -3.85696 | 10834 ft | 335 kts | 257° |
| 2026-04-25 11:42 | 55.95167 | -3.89802 | 10956 ft | 349 kts | 257° |
| 2026-04-25 11:42 | 55.94547 | -3.94065 | 11190 ft | 359 kts | 257° |
| 2026-04-25 11:43 | 55.93804 | -3.98340 | 11611 ft | 364 kts | 247° |
| 2026-04-25 11:43 | 55.92464 | -4.02200 | 12067 ft | 370 kts | 231° |
| 2026-04-25 11:43 | 55.90540 | -4.05272 | 12504 ft | 375 kts | 217° |
| 2026-04-25 11:43 | 55.88408 | -4.07966 | 12971 ft | 377 kts | 216° |
| 2026-04-25 11:44 | 55.86260 | -4.10680 | 13461 ft | 379 kts | 217° |
| 2026-04-25 11:44 | 55.84101 | -4.13415 | 13902 ft | 383 kts | 217° |
| 2026-04-25 11:44 | 55.81922 | -4.16174 | 14321 ft | 385 kts | 216° |
| 2026-04-25 11:44 | 55.80820 | -4.17571 | 14529 ft | 386 kts | 217° |
| 2026-04-25 11:45 | 55.78659 | -4.20319 | 14951 ft | 387 kts | 217° |
| 2026-04-25 11:45 | 55.76425 | -4.23133 | 15356 ft | 390 kts | 216° |
| 2026-04-25 11:45 | 55.74231 | -4.25865 | 15768 ft | 391 kts | 216° |
| 2026-04-25 11:45 | 55.71992 | -4.28636 | 16199 ft | 392 kts | 215° |
| 2026-04-25 11:46 | 55.69752 | -4.31402 | 16604 ft | 393 kts | 215° |
| 2026-04-25 11:46 | 55.67495 | -4.34183 | 17015 ft | 395 kts | 214° |
| 2026-04-25 11:46 | 55.65238 | -4.36964 | 17430 ft | 396 kts | 214° |
| 2026-04-25 11:46 | 55.62970 | -4.39758 | 17799 ft | 398 kts | 214° |
| 2026-04-25 11:47 | 55.60685 | -4.42575 | 18160 ft | 401 kts | 214° |
| 2026-04-25 11:47 | 55.58391 | -4.45399 | 18537 ft | 402 kts | 214° |
| 2026-04-25 11:47 | 55.56084 | -4.48230 | 18856 ft | 405 kts | 214° |
| 2026-04-25 11:47 | 55.53765 | -4.51070 | 19170 ft | 407 kts | 214° |
| 2026-04-25 11:48 | 55.51427 | -4.53933 | 19481 ft | 409 kts | 214° |
| 2026-04-25 11:48 | 55.49081 | -4.56808 | 19791 ft | 411 kts | 214° |
| 2026-04-25 11:48 | 55.46754 | -4.59660 | 20098 ft | 413 kts | 213° |
| 2026-04-25 11:48 | 55.44385 | -4.62554 | 20395 ft | 415 kts | 213° |
| 2026-04-25 11:49 | 55.42008 | -4.65456 | 20724 ft | 416 kts | 214° |
| 2026-04-25 11:49 | 55.39622 | -4.68362 | 21059 ft | 418 kts | 214° |
| 2026-04-25 11:49 | 55.37225 | -4.71271 | 21363 ft | 419 kts | 213° |
| 2026-04-25 11:49 | 55.34813 | -4.74186 | 21683 ft | 421 kts | 213° |
| 2026-04-25 11:50 | 55.32390 | -4.77093 | 21992 ft | 422 kts | 211° |
| 2026-04-25 11:50 | 55.29801 | -4.79532 | 22286 ft | 423 kts | 202° |
| 2026-04-25 11:50 | 55.27078 | -4.81529 | 22579 ft | 425 kts | 202° |
| 2026-04-25 11:50 | 55.24342 | -4.83526 | 22873 ft | 427 kts | 202° |
| 2026-04-25 11:51 | 55.21592 | -4.85534 | 23165 ft | 429 kts | 202° |
| 2026-04-25 11:51 | 55.18834 | -4.87553 | 23453 ft | 430 kts | 202° |
| 2026-04-25 11:51 | 55.16062 | -4.89585 | 23733 ft | 432 kts | 202° |
| 2026-04-25 11:51 | 55.13289 | -4.91615 | 24002 ft | 433 kts | 202° |
| 2026-04-25 11:52 | 55.10501 | -4.93650 | 24254 ft | 434 kts | 201° |
| 2026-04-25 11:52 | 55.07709 | -4.95683 | 24500 ft | 435 kts | 201° |
| 2026-04-25 11:52 | 55.04907 | -4.97720 | 24739 ft | 437 kts | 201° |
| 2026-04-25 11:52 | 55.02132 | -4.99736 | 24971 ft | 438 kts | 201° |
| 2026-04-25 11:53 | 54.99319 | -5.01774 | 25204 ft | 439 kts | 201° |
| 2026-04-25 11:53 | 54.96499 | -5.03817 | 25439 ft | 440 kts | 201° |
| 2026-04-25 11:53 | 54.93660 | -5.05869 | 25632 ft | 442 kts | 201° |
| 2026-04-25 11:53 | 54.90812 | -5.07925 | 25865 ft | 443 kts | 201° |
| 2026-04-25 11:54 | 54.87962 | -5.09978 | 26101 ft | 444 kts | 202° |
| 2026-04-25 11:54 | 54.85105 | -5.12036 | 26320 ft | 445 kts | 202° |
| 2026-04-25 11:54 | 54.79368 | -5.16153 | 26776 ft | 447 kts | 202° |
| 2026-04-25 11:55 | 54.76495 | -5.18206 | 27086 ft | 446 kts | 201° |
| 2026-04-25 11:55 | 54.73629 | -5.20248 | 27400 ft | 445 kts | 201° |
| 2026-04-25 11:55 | 54.70792 | -5.22267 | 27707 ft | 444 kts | 201° |
| 2026-04-25 11:55 | 54.67915 | -5.24312 | 28004 ft | 443 kts | 201° |
| 2026-04-25 11:56 | 54.65067 | -5.26338 | 28300 ft | 442 kts | 201° |
| 2026-04-25 11:56 | 54.62223 | -5.28360 | 28563 ft | 441 kts | 203° |
| 2026-04-25 11:56 | 54.59378 | -5.30378 | 28815 ft | 441 kts | 202° |
| 2026-04-25 11:56 | 54.56575 | -5.32360 | 29085 ft | 441 kts | 203° |
| 2026-04-25 11:57 | 54.53706 | -5.34387 | 29351 ft | 440 kts | 203° |
| 2026-04-25 11:57 | 54.50914 | -5.36358 | 29608 ft | 439 kts | 203° |
| 2026-04-25 11:57 | 54.48082 | -5.38354 | 29870 ft | 439 kts | 204° |
| 2026-04-25 11:57 | 54.45259 | -5.40343 | 30112 ft | 438 kts | 204° |
| 2026-04-25 11:58 | 54.42441 | -5.42328 | 30357 ft | 438 kts | 204° |
| 2026-04-25 11:58 | 54.39622 | -5.44315 | 30578 ft | 437 kts | 204° |
| 2026-04-25 11:58 | 54.36802 | -5.46297 | 30764 ft | 437 kts | 204° |
| 2026-04-25 11:58 | 54.33990 | -5.48263 | 30987 ft | 436 kts | 204° |
| 2026-04-25 11:59 | 54.31179 | -5.50222 | 31164 ft | 436 kts | 204° |
| 2026-04-25 11:59 | 54.25565 | -5.54126 | 31219 ft | 435 kts | 204° |
| 2026-04-25 12:00 | 54.17194 | -5.59949 | 31220 ft | 434 kts | 204° |
| 2026-04-25 12:01 | 54.08795 | -5.65765 | 31218 ft | 434 kts | 204° |
| 2026-04-25 12:01 | 54.03192 | -5.69621 | 31220 ft | 434 kts | 204° |
| 2026-04-25 12:02 | 53.95012 | -5.76040 | 31220 ft | 431 kts | 216° |
| 2026-04-25 12:02 | 53.90193 | -5.81979 | 31240 ft | 431 kts | 217° |
| 2026-04-25 12:03 | 53.87760 | -5.84961 | 31440 ft | 431 kts | 217° |
| 2026-04-25 12:03 | 53.85330 | -5.87926 | 31644 ft | 430 kts | 217° |
| 2026-04-25 12:03 | 53.82907 | -5.90876 | 31773 ft | 429 kts | 217° |
| 2026-04-25 12:03 | 53.80484 | -5.93825 | 31936 ft | 429 kts | 217° |
| 2026-04-25 12:04 | 53.78061 | -5.96773 | 32136 ft | 429 kts | 217° |
| 2026-04-25 12:04 | 53.75628 | -5.99735 | 32206 ft | 432 kts | 217° |
| 2026-04-25 12:04 | 53.70703 | -6.05723 | 32220 ft | 440 kts | 217° |
| 2026-04-25 12:05 | 53.65689 | -6.11786 | 32203 ft | 447 kts | 217° |
| 2026-04-25 12:05 | 53.60593 | -6.17908 | 32198 ft | 450 kts | 217° |
| 2026-04-25 12:06 | 53.55504 | -6.24029 | 32216 ft | 449 kts | 217° |
| 2026-04-25 12:06 | 53.50417 | -6.30130 | 32409 ft | 449 kts | 217° |
| 2026-04-25 12:07 | 53.47914 | -6.33252 | 32536 ft | 448 kts | 219° |
| 2026-04-25 12:07 | 53.45489 | -6.36510 | 32676 ft | 447 kts | 221° |
| 2026-04-25 12:07 | 53.43144 | -6.39816 | 32805 ft | 446 kts | 221° |
| 2026-04-25 12:07 | 53.40788 | -6.43197 | 32936 ft | 445 kts | 222° |
| 2026-04-25 12:08 | 53.38432 | -6.46568 | 33042 ft | 445 kts | 221° |
| 2026-04-25 12:08 | 53.36066 | -6.49899 | 33167 ft | 444 kts | 221° |
| 2026-04-25 12:08 | 53.33688 | -6.53195 | 33309 ft | 444 kts | 220° |
| 2026-04-25 12:08 | 53.31298 | -6.56468 | 33454 ft | 443 kts | 220° |
| 2026-04-25 12:09 | 53.28914 | -6.59717 | 33581 ft | 443 kts | 220° |
| 2026-04-25 12:09 | 53.26523 | -6.62972 | 33720 ft | 442 kts | 220° |
| 2026-04-25 12:09 | 53.24146 | -6.66211 | 33853 ft | 441 kts | 220° |
| 2026-04-25 12:09 | 53.21771 | -6.69441 | 34008 ft | 440 kts | 220° |
| 2026-04-25 12:10 | 53.19394 | -6.72669 | 34145 ft | 440 kts | 220° |
| 2026-04-25 12:10 | 53.17025 | -6.75887 | 34268 ft | 439 kts | 220° |
| 2026-04-25 12:10 | 53.14663 | -6.79093 | 34386 ft | 438 kts | 220° |
| 2026-04-25 12:10 | 53.12302 | -6.82294 | 34505 ft | 437 kts | 220° |
| 2026-04-25 12:11 | 53.09949 | -6.85475 | 34625 ft | 436 kts | 220° |
| 2026-04-25 12:11 | 53.07593 | -6.88655 | 34744 ft | 436 kts | 220° |
| 2026-04-25 12:11 | 53.05245 | -6.91827 | 34863 ft | 435 kts | 220° |
| 2026-04-25 12:11 | 53.02894 | -6.95002 | 34976 ft | 434 kts | 220° |
| 2026-04-25 12:12 | 53.00552 | -6.98161 | 35094 ft | 433 kts | 220° |
| 2026-04-25 12:12 | 52.99001 | -7.00248 | 35173 ft | 433 kts | 220° |
| 2026-04-25 12:12 | 52.95873 | -7.04455 | 35341 ft | 432 kts | 220° |
| 2026-04-25 12:12 | 52.93539 | -7.07588 | 35462 ft | 431 kts | 220° |
| 2026-04-25 12:13 | 52.91239 | -7.10666 | 35585 ft | 430 kts | 220° |
| 2026-04-25 12:13 | 52.88910 | -7.13768 | 35711 ft | 429 kts | 220° |
| 2026-04-25 12:13 | 52.86581 | -7.16863 | 35835 ft | 428 kts | 220° |
| 2026-04-25 12:13 | 52.84256 | -7.19948 | 35955 ft | 427 kts | 220° |
| 2026-04-25 12:14 | 52.81942 | -7.23022 | 36086 ft | 426 kts | 220° |
| 2026-04-25 12:14 | 52.79634 | -7.26092 | 36212 ft | 425 kts | 220° |
| 2026-04-25 12:14 | 52.77328 | -7.29157 | 36330 ft | 424 kts | 220° |
| 2026-04-25 12:14 | 52.75031 | -7.32207 | 36447 ft | 423 kts | 220° |
| 2026-04-25 12:15 | 52.72739 | -7.35246 | 36582 ft | 422 kts | 220° |
| 2026-04-25 12:15 | 52.70456 | -7.38262 | 36711 ft | 420 kts | 220° |
| 2026-04-25 12:15 | 52.68174 | -7.41269 | 36841 ft | 418 kts | 220° |
| 2026-04-25 12:15 | 52.65907 | -7.44251 | 36966 ft | 416 kts | 220° |
| 2026-04-25 12:16 | 52.63645 | -7.47222 | 37101 ft | 414 kts | 220° |
| 2026-04-25 12:16 | 52.62155 | -7.49179 | 37185 ft | 413 kts | 220° |
| 2026-04-25 12:16 | 52.59170 | -7.53097 | 36917 ft | 421 kts | 220° |
| 2026-04-25 12:16 | 52.56865 | -7.56125 | 36735 ft | 426 kts | 220° |
| 2026-04-25 12:17 | 52.52217 | -7.62211 | 36804 ft | 427 kts | 219° |
| 2026-04-25 12:17 | 52.48314 | -7.67301 | 36869 ft | 428 kts | 220° |
| 2026-04-25 12:18 | 52.43645 | -7.73366 | 36953 ft | 429 kts | 219° |
| 2026-04-25 12:18 | 52.39053 | -7.79338 | 37179 ft | 409 kts | 219° |
| 2026-04-25 12:19 | 52.35449 | -7.84119 | 37219 ft | 395 kts | 218° |
| 2026-04-25 12:19 | 52.32567 | -7.87792 | 37161 ft | 396 kts | 217° |
| 2026-04-25 12:19 | 52.30384 | -7.90517 | 37292 ft | 393 kts | 217° |
| 2026-04-25 12:20 | 52.28231 | -7.93228 | 37417 ft | 389 kts | 218° |
| 2026-04-25 12:20 | 52.26117 | -7.95907 | 37738 ft | 377 kts | 218° |
| 2026-04-25 12:20 | 52.24077 | -7.98499 | 38064 ft | 369 kts | 218° |
| 2026-04-25 12:20 | 52.22060 | -8.01092 | 37868 ft | 371 kts | 219° |
| 2026-04-25 12:21 | 52.20035 | -8.03709 | 37843 ft | 365 kts | 218° |
| 2026-04-25 12:21 | 52.18058 | -8.06187 | 38200 ft | 355 kts | 217° |
| 2026-04-25 12:21 | 52.16093 | -8.08676 | 37835 ft | 362 kts | 218° |
| 2026-04-25 12:21 | 52.14082 | -8.11266 | 37207 ft | 375 kts | 219° |
| 2026-04-25 12:22 | 52.12046 | -8.13929 | 37164 ft | 374 kts | 219° |
| 2026-04-25 12:22 | 52.07987 | -8.19204 | 37044 ft | 376 kts | 219° |
| 2026-04-25 12:22 | 52.05966 | -8.21892 | 36675 ft | 384 kts | 221° |
| 2026-04-25 12:23 | 52.03841 | -8.24622 | 36652 ft | 385 kts | 219° |
| 2026-04-25 12:23 | 52.01697 | -8.27317 | 36009 ft | 395 kts | 218° |
| 2026-04-25 12:23 | 51.99553 | -8.30013 | 36099 ft | 394 kts | 219° |
| 2026-04-25 12:24 | 51.95205 | -8.35432 | 36188 ft | 395 kts | 219° |
| 2026-04-25 12:24 | 51.90836 | -8.40900 | 36190 ft | 399 kts | 219° |
| 2026-04-25 12:25 | 51.86439 | -8.46427 | 36192 ft | 402 kts | 220° |
| 2026-04-25 12:25 | 51.82001 | -8.52019 | 36193 ft | 406 kts | 220° |
| 2026-04-25 12:26 | 51.77529 | -8.57665 | 36195 ft | 409 kts | 220° |
| 2026-04-25 12:26 | 51.73023 | -8.63357 | 36193 ft | 413 kts | 220° |
| 2026-04-25 12:27 | 51.68490 | -8.69071 | 36197 ft | 418 kts | 220° |
| 2026-04-25 12:27 | 51.63878 | -8.74857 | 36189 ft | 422 kts | 220° |
| 2026-04-25 12:28 | 51.59219 | -8.80688 | 36212 ft | 426 kts | 220° |
| 2026-04-25 12:28 | 51.54517 | -8.86564 | 36197 ft | 429 kts | 219° |
| 2026-04-25 12:29 | 51.49783 | -8.92445 | 36203 ft | 431 kts | 219° |
| 2026-04-25 12:29 | 51.45061 | -8.98308 | 36207 ft | 432 kts | 220° |
| 2026-04-25 12:30 | 51.40307 | -9.04192 | 36203 ft | 431 kts | 219° |
| 2026-04-25 12:30 | 51.35553 | -9.10053 | 36213 ft | 431 kts | 219° |
| 2026-04-25 12:31 | 51.30808 | -9.15893 | 36207 ft | 430 kts | 219° |
| 2026-04-25 12:31 | 51.26062 | -9.21716 | 36206 ft | 430 kts | 219° |
| 2026-04-25 12:32 | 51.21320 | -9.27514 | 36221 ft | 430 kts | 219° |
| 2026-04-25 12:32 | 51.16610 | -9.33264 | 36217 ft | 428 kts | 219° |
| 2026-04-25 12:33 | 51.11884 | -9.39028 | 36217 ft | 428 kts | 219° |
| 2026-04-25 12:33 | 51.07156 | -9.44782 | 36213 ft | 428 kts | 219° |
| 2026-04-25 12:34 | 51.02419 | -9.50516 | 36225 ft | 428 kts | 219° |
| 2026-04-25 12:34 | 50.97682 | -9.56236 | 36216 ft | 428 kts | 219° |
| 2026-04-25 12:35 | 50.92946 | -9.61947 | 36205 ft | 427 kts | 219° |
| 2026-04-25 12:35 | 50.88212 | -9.67639 | 36218 ft | 427 kts | 219° |
| 2026-04-25 12:36 | 50.83471 | -9.73320 | 36218 ft | 427 kts | 219° |
| 2026-04-25 12:36 | 50.78718 | -9.79007 | 36215 ft | 427 kts | 219° |
| 2026-04-25 12:37 | 50.73997 | -9.84638 | 36217 ft | 427 kts | 219° |
| 2026-04-25 12:37 | 50.69253 | -9.90282 | 36215 ft | 427 kts | 219° |
| 2026-04-25 12:38 | 50.64498 | -9.95927 | 36214 ft | 427 kts | 219° |
| 2026-04-25 12:38 | 50.59744 | -10.01556 | 36216 ft | 427 kts | 219° |
| 2026-04-25 12:39 | 50.54988 | -10.07165 | 36222 ft | 427 kts | 219° |
| 2026-04-25 12:39 | 50.50228 | -10.12777 | 36221 ft | 427 kts | 219° |